createdAt,value
2023-05-03T00:00:18.597Z,9.52
2023-05-03T00:02:47.172Z,9.65
2023-05-03T00:05:16.039Z,9.38
2023-05-03T00:07:45.429Z,9.52
2023-05-03T00:10:16.206Z,9.68
2023-05-03T00:12:45.454Z,9.27
2023-05-03T00:15:13.704Z,9.57
2023-05-03T00:17:42.089Z,9.25
2023-05-03T00:20:12.080Z,9.40
2023-05-03T00:22:40.242Z,8.93
2023-05-03T00:25:11.220Z,9.32
2023-05-03T00:27:41.121Z,8.73
2023-05-03T00:30:10.840Z,8.52
2023-05-03T00:32:39.510Z,8.98
2023-05-03T00:35:08.776Z,7.95
2023-05-03T00:37:38.343Z,8.20
2023-05-03T00:40:08.179Z,9.10
2023-05-03T00:42:37.539Z,8.10
2023-05-03T00:45:08.429Z,8.32
2023-05-03T00:47:40.610Z,8.88
2023-05-03T00:50:11.973Z,8.35
2023-05-03T00:52:41.744Z,8.70
2023-05-03T00:55:11.460Z,8.15
2023-05-03T00:57:39.681Z,8.52
2023-05-03T01:00:10.847Z,7.95
2023-05-03T01:02:39.734Z,8.60
2023-05-03T01:05:09.218Z,8.15
2023-05-03T01:07:49.401Z,7.55
2023-05-03T01:10:28.024Z,8.10
2023-05-03T01:13:03.029Z,8.23
2023-05-03T01:15:46.183Z,7.70
2023-05-03T01:18:21.708Z,8.18
2023-05-03T01:20:51.898Z,7.53
2023-05-03T01:23:34.803Z,7.88
2023-05-03T01:26:20.856Z,7.22
2023-05-03T01:28:49.216Z,7.95
2023-05-03T01:31:24.433Z,7.93
2023-05-03T01:34:04.464Z,7.57
2023-05-03T01:36:33.889Z,7.53
2023-05-03T01:39:06.918Z,8.35
2023-05-03T01:41:39.058Z,7.05
2023-05-03T01:44:09.308Z,8.07
2023-05-03T01:46:43.915Z,7.53
2023-05-03T01:49:12.179Z,7.68
2023-05-03T01:51:40.857Z,7.47
2023-05-03T01:54:09.312Z,7.90
2023-05-03T01:56:39.153Z,7.60
2023-05-03T01:59:07.636Z,8.02
2023-05-03T02:01:36.191Z,7.38
2023-05-03T02:04:04.510Z,7.65
2023-05-03T02:06:32.852Z,7.72
2023-05-03T02:09:01.451Z,7.95
2023-05-03T02:11:29.666Z,7.78
2023-05-03T02:13:59.520Z,7.10
2023-05-03T02:16:28.054Z,7.90
2023-05-03T02:18:59.423Z,7.63
2023-05-03T02:21:27.770Z,7.05
2023-05-03T02:23:56.448Z,7.53
2023-05-03T02:26:24.623Z,7.07
2023-05-03T02:28:53.260Z,7.72
2023-05-03T02:31:23.115Z,6.32
2023-05-03T02:33:51.345Z,7.22
2023-05-03T02:36:19.717Z,6.85
2023-05-03T02:38:49.422Z,8.00
2023-05-03T02:41:17.606Z,7.32
2023-05-03T02:43:45.957Z,7.30
2023-05-03T02:46:14.292Z,7.35
2023-05-03T02:48:43.829Z,7.93
2023-05-03T02:51:12.223Z,7.85
2023-05-03T02:53:40.799Z,7.05
2023-05-03T02:56:09.833Z,7.60
2023-05-03T02:58:38.028Z,7.70
2023-05-03T03:01:06.731Z,7.80
2023-05-03T03:03:34.970Z,8.00
2023-05-03T03:06:04.893Z,7.47
2023-05-03T03:08:33.374Z,7.07
2023-05-03T03:11:01.625Z,7.13
2023-05-03T03:13:30.066Z,7.32
2023-05-03T03:15:58.486Z,6.93
2023-05-03T03:18:26.729Z,7.45
2023-05-03T03:20:55.008Z,6.78
2023-05-03T03:23:24.712Z,7.43
2023-05-03T03:25:53.093Z,7.13
2023-05-03T03:28:21.838Z,7.18
2023-05-03T03:30:50.360Z,7.00
2023-05-03T03:33:18.581Z,6.82
2023-05-03T03:35:46.974Z,7.18
2023-05-03T03:38:15.364Z,7.35
2023-05-03T03:40:44.935Z,6.82
2023-05-03T03:43:13.407Z,7.32
2023-05-03T03:45:42.091Z,7.10
2023-05-03T03:48:10.299Z,7.65
2023-05-03T03:50:38.740Z,7.20
2023-05-03T03:53:07.386Z,7.80
2023-05-03T03:55:35.624Z,7.68
2023-05-03T03:58:05.634Z,7.25
2023-05-03T04:00:35.148Z,7.25
2023-05-03T04:03:05.907Z,7.10
2023-05-03T04:05:35.845Z,7.75
2023-05-03T04:08:04.413Z,7.90
2023-05-03T04:10:32.630Z,7.47
2023-05-03T04:13:00.941Z,7.78
2023-05-03T04:15:30.854Z,8.00
2023-05-03T04:17:59.092Z,8.18
2023-05-03T04:20:27.504Z,8.02
2023-05-03T04:22:55.719Z,7.82
2023-05-03T04:25:24.074Z,7.75
2023-05-03T04:27:52.833Z,8.48
2023-05-03T04:30:21.437Z,7.88
2023-05-03T04:32:54.611Z,8.20
2023-05-03T04:35:23.070Z,8.52
2023-05-03T04:37:51.220Z,6.97
2023-05-03T04:40:20.186Z,8.38
2023-05-03T04:42:48.902Z,7.80
2023-05-03T04:45:18.786Z,8.13
2023-05-03T04:47:47.225Z,7.45
2023-05-03T04:50:16.964Z,8.05
2023-05-03T04:52:45.702Z,7.82
2023-05-03T04:55:14.362Z,7.93
2023-05-03T04:57:42.632Z,7.88
2023-05-03T05:00:12.253Z,7.55
2023-05-03T05:02:40.644Z,7.57
2023-05-03T05:05:10.593Z,7.28
2023-05-03T05:07:40.152Z,7.70
2023-05-03T05:10:09.987Z,6.72
2023-05-03T05:12:38.467Z,7.13
2023-05-03T05:15:09.036Z,7.05
2023-05-03T05:17:37.566Z,6.75
2023-05-03T05:20:07.473Z,7.20
2023-05-03T05:22:35.858Z,7.28
2023-05-03T05:25:06.657Z,6.63
2023-05-03T05:27:35.477Z,7.28
2023-05-03T05:30:04.841Z,6.90
2023-05-03T05:32:33.500Z,7.32
2023-05-03T05:35:01.770Z,6.88
2023-05-03T05:37:29.940Z,6.53
2023-05-03T05:39:58.248Z,6.80
2023-05-03T05:42:28.010Z,6.68
2023-05-03T05:44:57.334Z,6.40
2023-05-03T05:47:25.765Z,6.32
2023-05-03T05:49:54.145Z,6.88
2023-05-03T05:52:22.317Z,6.38
2023-05-03T05:54:50.720Z,7.07
2023-05-03T05:57:18.918Z,6.95
2023-05-03T05:59:48.517Z,6.78
2023-05-03T06:02:18.313Z,7.03
2023-05-03T06:04:47.408Z,6.57
2023-05-03T06:07:16.235Z,6.82
2023-05-03T06:09:44.712Z,6.93
2023-05-03T06:12:16.231Z,6.95
2023-05-03T06:15:01.005Z,7.35
2023-05-03T06:17:32.405Z,7.38
2023-05-03T06:20:01.280Z,7.63
2023-05-03T06:22:29.576Z,8.13
2023-05-03T06:24:58.315Z,7.47
2023-05-03T06:27:26.713Z,7.50
2023-05-03T06:29:54.861Z,7.15
2023-05-03T06:32:23.726Z,7.50
2023-05-03T06:34:53.724Z,7.43
2023-05-03T06:37:21.880Z,7.88
2023-05-03T06:39:50.988Z,7.22
2023-05-03T06:42:19.294Z,8.65
2023-05-03T06:44:48.297Z,8.25
2023-05-03T06:47:16.669Z,8.60
2023-05-03T06:49:45.020Z,8.70
2023-05-03T06:52:15.047Z,8.68
2023-05-03T06:54:43.588Z,8.48
2023-05-03T06:57:11.864Z,8.55
2023-05-03T06:59:40.242Z,8.95
2023-05-03T07:02:08.741Z,8.50
2023-05-03T07:04:37.878Z,9.63
2023-05-03T07:07:06.654Z,9.65
2023-05-03T07:12:10.499Z,9.98
2023-05-03T07:14:39.623Z,10.30
2023-05-03T07:17:07.998Z,10.65
2023-05-03T07:19:37.292Z,9.90
2023-05-03T07:22:05.854Z,9.98
2023-05-03T07:24:35.704Z,9.82
2023-05-03T07:27:03.940Z,10.52
2023-05-03T07:29:32.450Z,10.15
2023-05-03T07:32:01.123Z,10.52
2023-05-03T07:34:29.253Z,10.48
2023-05-03T07:36:57.611Z,10.55
2023-05-03T07:39:25.978Z,11.52
2023-05-03T07:41:55.850Z,11.70
2023-05-03T07:44:24.244Z,11.02
2023-05-03T07:46:52.376Z,11.07
2023-05-03T07:49:21.043Z,11.60
2023-05-03T07:51:49.431Z,11.85
2023-05-03T07:54:17.773Z,10.75
2023-05-03T07:56:46.486Z,11.48
2023-05-03T07:59:16.625Z,10.90
2023-05-03T08:01:44.814Z,11.68
2023-05-03T08:04:13.333Z,12.07
2023-05-03T08:06:43.389Z,11.15
2023-05-03T08:09:12.223Z,11.45
2023-05-03T08:11:43.211Z,11.27
2023-05-03T08:14:12.672Z,11.68
2023-05-03T08:16:42.457Z,11.35
2023-05-03T08:19:10.688Z,11.70
2023-05-03T08:21:39.422Z,11.65
2023-05-03T08:24:08.451Z,12.82
2023-05-03T08:26:37.363Z,12.27
2023-05-03T08:29:06.294Z,12.18
2023-05-03T08:31:35.209Z,12.60
2023-05-03T08:34:07.255Z,12.05
2023-05-03T08:36:35.805Z,12.95
2023-05-03T08:39:06.456Z,12.90
2023-05-03T08:41:35.337Z,13.75
2023-05-03T08:44:05.511Z,12.50
2023-05-03T08:46:37.413Z,12.90
2023-05-03T08:49:09.092Z,13.15
2023-05-03T08:51:41.787Z,12.73
2023-05-03T08:54:10.240Z,13.00
2023-05-03T08:56:43.109Z,13.00
2023-05-03T08:59:12.219Z,12.48
2023-05-03T09:01:41.710Z,13.70
2023-05-03T09:04:13.102Z,13.18
2023-05-03T09:06:41.617Z,13.75
2023-05-03T09:09:10.450Z,13.05
2023-05-03T09:11:40.661Z,13.75
2023-05-03T09:14:12.930Z,13.57
2023-05-03T09:16:42.686Z,14.65
2023-05-03T09:19:13.137Z,14.05
2023-05-03T09:21:42.427Z,14.15
2023-05-03T09:24:15.477Z,14.15
2023-05-03T09:26:44.361Z,13.57
2023-05-03T09:29:27.698Z,13.07
2023-05-03T09:32:01.074Z,14.10
2023-05-03T09:34:31.877Z,13.85
2023-05-03T09:37:00.261Z,13.90
2023-05-03T09:39:28.698Z,14.18
2023-05-03T09:41:57.582Z,13.77
2023-05-03T09:44:43.005Z,14.27
2023-05-03T09:47:12.673Z,13.70
2023-05-03T09:49:42.694Z,14.52
2023-05-03T09:52:11.467Z,14.75
2023-05-03T09:54:41.010Z,13.55
2023-05-03T09:57:10.193Z,13.98
2023-05-03T09:59:40.008Z,13.80
2023-05-03T10:02:09.625Z,13.95
2023-05-03T10:04:44.771Z,14.27
2023-05-03T10:07:16.001Z,13.77
2023-05-03T10:09:45.743Z,13.68
2023-05-03T10:12:17.749Z,14.52
2023-05-03T10:14:48.117Z,14.40
2023-05-03T10:17:19.959Z,14.10
2023-05-03T10:19:53.490Z,14.88
2023-05-03T10:22:21.723Z,14.30
2023-05-03T10:25:12.633Z,14.13
2023-05-03T10:27:53.201Z,14.32
2023-05-03T10:30:32.777Z,13.77
2023-05-03T10:33:21.627Z,14.40
2023-05-03T10:35:54.091Z,14.88
2023-05-03T10:38:24.633Z,14.15
2023-05-03T10:40:55.004Z,14.18
2023-05-03T10:43:46.392Z,13.65
2023-05-03T10:46:36.126Z,15.00
2023-05-03T10:49:18.211Z,13.23
2023-05-03T10:51:48.269Z,13.88
2023-05-03T10:54:17.188Z,13.95
2023-05-03T10:56:56.918Z,14.63
2023-05-03T10:59:26.096Z,14.90
2023-05-03T11:01:54.707Z,14.18
2023-05-03T11:04:35.384Z,13.90
2023-05-03T11:07:05.078Z,13.60
2023-05-03T11:09:35.495Z,14.10
2023-05-03T11:12:08.778Z,14.50
2023-05-03T11:14:39.773Z,13.80
2023-05-03T11:17:08.225Z,14.10
2023-05-03T11:19:36.805Z,12.57
2023-05-03T11:22:07.220Z,19.55
2023-05-03T11:24:35.514Z,13.65
2023-05-03T11:27:08.331Z,13.18
2023-05-03T11:29:38.049Z,14.38
2023-05-03T11:32:10.681Z,13.07
2023-05-03T11:34:40.473Z,12.60
2023-05-03T11:37:14.333Z,14.05
2023-05-03T11:39:43.745Z,13.73
2023-05-03T11:42:12.001Z,14.75
2023-05-03T11:44:40.680Z,13.75
2023-05-03T11:47:09.566Z,13.65
2023-05-03T11:49:38.252Z,13.13
2023-05-03T11:52:07.446Z,14.82
2023-05-03T11:54:37.978Z,13.27
2023-05-03T11:57:14.006Z,13.25
2023-05-03T11:59:42.767Z,12.80
2023-05-03T12:02:14.806Z,13.85
2023-05-03T12:04:46.126Z,12.52
2023-05-03T12:07:19.040Z,12.32
2023-05-03T12:10:00.713Z,12.07
2023-05-03T12:12:43.365Z,12.85
2023-05-03T12:15:16.249Z,13.00
2023-05-03T12:17:49.941Z,13.60
2023-05-03T12:22:52.622Z,13.48
2023-05-03T12:25:28.323Z,13.40
2023-05-03T12:28:17.988Z,13.13
2023-05-03T12:30:47.880Z,13.55
2023-05-03T12:33:21.806Z,13.10
2023-05-03T12:35:53.397Z,13.43
2023-05-03T12:38:24.289Z,13.88
2023-05-03T12:40:54.992Z,13.82
2023-05-03T12:43:23.631Z,13.15
2023-05-03T12:46:09.366Z,13.48
2023-05-03T12:48:40.686Z,13.30
2023-05-03T12:51:19.573Z,13.30
2023-05-03T12:53:54.510Z,12.55
2023-05-03T12:56:25.794Z,13.15
2023-05-03T13:04:11.210Z,13.23
2023-05-03T13:06:47.009Z,12.73
2023-05-03T13:09:21.133Z,12.90
2023-05-03T13:11:52.419Z,12.88
2023-05-03T13:14:21.568Z,13.27
2023-05-03T13:16:51.405Z,12.48
2023-05-03T13:19:19.861Z,13.13
2023-05-03T13:21:49.834Z,13.05
2023-05-03T13:24:18.528Z,11.88
2023-05-03T13:26:47.155Z,12.52
2023-05-03T13:29:16.949Z,12.65
2023-05-03T13:31:45.555Z,12.40
2023-05-03T13:34:13.905Z,12.18
2023-05-03T13:36:42.168Z,12.18
2023-05-03T13:39:10.982Z,12.82
2023-05-03T13:41:42.162Z,12.43
2023-05-03T13:44:12.094Z,12.93
2023-05-03T13:46:43.290Z,13.05
2023-05-03T13:49:11.967Z,13.13
2023-05-03T13:51:40.371Z,13.18
2023-05-03T13:54:09.119Z,12.50
2023-05-03T13:56:38.034Z,12.68
2023-05-03T13:59:09.577Z,12.93
2023-05-03T14:01:38.352Z,12.57
2023-05-03T14:04:08.246Z,13.93
2023-05-03T14:06:40.078Z,12.63
2023-05-03T14:09:10.214Z,12.27
2023-05-03T14:11:39.208Z,12.10
2023-05-03T14:14:07.513Z,13.30
2023-05-03T14:16:41.710Z,12.35
2023-05-03T14:19:12.438Z,13.20
2023-05-03T14:21:42.981Z,13.48
2023-05-03T14:24:11.615Z,14.38
2023-05-03T14:26:40.211Z,13.60
2023-05-03T14:29:08.683Z,12.93
2023-05-03T14:31:36.963Z,13.60
2023-05-03T14:34:05.627Z,12.52
2023-05-03T14:36:38.780Z,13.68
2023-05-03T14:39:07.466Z,13.73
2023-05-03T14:41:36.424Z,13.55
2023-05-03T14:44:04.658Z,12.57
2023-05-03T14:46:33.114Z,12.95
2023-05-03T14:49:01.687Z,12.70
2023-05-03T14:51:30.113Z,12.95
2023-05-03T14:54:00.273Z,12.55
2023-05-03T14:56:28.480Z,11.90
2023-05-03T14:58:56.639Z,12.65
2023-05-03T15:01:25.136Z,12.35
2023-05-03T15:03:54.060Z,10.77
2023-05-03T15:06:26.796Z,12.25
2023-05-03T15:08:55.169Z,12.20
2023-05-03T15:11:25.041Z,11.38
2023-05-03T15:13:53.812Z,11.27
2023-05-03T15:16:22.050Z,11.50
2023-05-03T15:18:50.252Z,10.88
2023-05-03T15:21:21.002Z,11.45
2023-05-03T15:23:49.511Z,10.88
2023-05-03T15:26:17.765Z,10.70
2023-05-03T15:28:47.647Z,10.95
2023-05-03T15:31:16.167Z,11.30
2023-05-03T15:33:46.006Z,12.10
2023-05-03T15:36:16.910Z,11.30
2023-05-03T15:38:45.241Z,11.05
2023-05-03T15:41:13.424Z,10.77
2023-05-03T15:43:41.588Z,11.35
2023-05-03T15:46:11.322Z,11.98
2023-05-03T15:48:39.535Z,10.65
2023-05-03T15:51:07.776Z,11.30
2023-05-03T15:53:36.266Z,11.82
2023-05-03T15:56:05.396Z,12.10
2023-05-03T15:58:33.572Z,11.57
2023-05-03T16:01:01.916Z,11.93
2023-05-03T16:03:31.695Z,11.85
2023-05-03T16:06:00.188Z,12.27
2023-05-03T16:08:30.680Z,12.15
2023-05-03T16:10:59.531Z,10.93
2023-05-03T16:13:27.821Z,11.57
2023-05-03T16:15:57.030Z,11.65
2023-05-03T16:18:26.997Z,10.70
2023-05-03T16:20:56.752Z,11.30
2023-05-03T16:23:25.059Z,11.27
2023-05-03T16:25:53.604Z,12.25
2023-05-03T16:28:21.905Z,11.57
2023-05-03T16:30:50.172Z,12.40
2023-05-03T16:33:18.246Z,12.30
2023-05-03T16:35:46.403Z,11.93
2023-05-03T16:38:16.521Z,11.35
2023-05-03T16:40:46.251Z,11.73
2023-05-03T16:43:15.732Z,11.60
2023-05-03T16:45:44.358Z,11.75
2023-05-03T16:48:12.960Z,11.48
2023-05-03T16:50:44.191Z,11.40
2023-05-03T16:53:13.614Z,11.57
2023-05-03T16:55:43.362Z,11.15
2023-05-03T16:58:11.665Z,11.75
2023-05-03T17:00:40.283Z,10.98
2023-05-03T17:03:09.087Z,10.35
2023-05-03T17:05:37.691Z,10.65
2023-05-03T17:08:08.393Z,11.10
2023-05-03T17:10:39.477Z,10.25
2023-05-03T17:13:09.470Z,11.13
2023-05-03T17:15:38.236Z,11.07
2023-05-03T17:18:06.723Z,10.57
2023-05-03T17:20:36.308Z,10.73
2023-05-03T17:23:04.571Z,10.45
2023-05-03T17:25:32.991Z,10.18
2023-05-03T17:28:01.508Z,9.95
2023-05-03T17:30:31.257Z,11.20
2023-05-03T17:32:59.670Z,10.75
2023-05-03T17:35:28.031Z,10.50
2023-05-03T17:37:57.110Z,10.52
2023-05-03T17:40:25.279Z,10.75
2023-05-03T17:42:53.539Z,10.20
2023-05-03T17:45:21.812Z,9.52
2023-05-03T17:47:51.603Z,10.15
2023-05-03T17:50:20.809Z,10.05
2023-05-03T17:52:49.010Z,9.70
2023-05-03T17:55:18.363Z,9.45
2023-05-03T17:57:46.857Z,9.15
2023-05-03T18:00:16.579Z,9.10
2023-05-03T18:02:44.964Z,9.00
2023-05-03T18:05:16.528Z,9.18
2023-05-03T18:07:45.324Z,8.88
2023-05-03T18:10:16.324Z,8.23
2023-05-03T18:12:45.084Z,9.05
2023-05-03T18:15:15.645Z,9.13
2023-05-03T18:17:44.534Z,8.77
2023-05-03T18:20:15.421Z,8.38
2023-05-03T18:22:43.787Z,8.35
2023-05-03T18:25:12.538Z,8.60
2023-05-03T18:27:40.840Z,8.18
2023-05-03T18:30:10.521Z,7.88
2023-05-03T18:32:39.000Z,7.90
2023-05-03T18:35:08.042Z,8.20
2023-05-03T18:37:37.580Z,8.48
2023-05-03T18:40:06.681Z,8.30
2023-05-03T18:42:35.359Z,7.97
2023-05-03T18:45:04.532Z,8.25
2023-05-03T18:47:33.206Z,7.82
2023-05-03T18:50:01.784Z,8.00
2023-05-03T18:52:30.110Z,7.72
2023-05-03T18:55:00.011Z,8.38
2023-05-03T18:57:28.990Z,8.13
2023-05-03T19:00:01.274Z,8.48
2023-05-03T19:02:31.737Z,8.48
2023-05-03T19:05:01.330Z,8.82
2023-05-03T19:07:29.773Z,8.27
2023-05-03T19:10:01.403Z,8.18
2023-05-03T19:12:29.836Z,9.27
2023-05-03T19:14:58.170Z,9.18
2023-05-03T19:17:26.552Z,8.68
2023-05-03T19:19:54.986Z,8.93
2023-05-03T19:22:23.558Z,9.57
2023-05-03T19:24:51.959Z,8.95
2023-05-03T19:27:21.500Z,8.82
2023-05-03T19:29:49.948Z,9.48
2023-05-03T19:32:18.381Z,8.95
2023-05-03T19:34:46.582Z,9.65
2023-05-03T19:37:14.848Z,9.10
2023-05-03T19:39:43.241Z,9.52
2023-05-03T19:42:11.468Z,9.55
2023-05-03T19:44:41.013Z,9.75
2023-05-03T19:47:09.392Z,9.88
2023-05-03T19:49:37.835Z,9.52
2023-05-03T19:52:06.358Z,9.35
2023-05-03T19:54:34.907Z,9.60
2023-05-03T19:57:06.608Z,9.93
2023-05-03T19:59:35.114Z,9.52
2023-05-03T20:02:04.870Z,9.85
2023-05-03T20:04:33.153Z,9.38
2023-05-03T20:07:01.622Z,9.32
2023-05-03T20:09:30.071Z,9.45
2023-05-03T20:11:59.840Z,9.13
2023-05-03T20:14:28.432Z,9.23
2023-05-03T20:16:57.266Z,9.60
2023-05-03T20:19:27.382Z,9.73
2023-05-03T20:21:55.700Z,10.15
2023-05-03T20:24:24.399Z,10.35
2023-05-03T20:26:53.650Z,10.50
2023-05-03T20:29:21.998Z,10.23
2023-05-03T20:31:53.625Z,9.60
2023-05-03T20:34:22.132Z,10.60
2023-05-03T20:36:52.819Z,10.30
2023-05-03T20:39:21.377Z,10.52
2023-05-03T20:41:49.522Z,10.85
2023-05-03T20:44:17.704Z,10.85
2023-05-03T20:46:46.002Z,10.30
2023-05-03T20:49:14.458Z,10.43
2023-05-03T20:51:42.997Z,11.23
2023-05-03T20:54:12.742Z,10.18
2023-05-03T20:56:41.097Z,10.77
2023-05-03T20:59:09.381Z,11.32
2023-05-03T21:01:40.750Z,10.63
2023-05-03T21:04:09.045Z,10.30
2023-05-03T21:06:38.305Z,10.43
2023-05-03T21:09:07.082Z,10.88
2023-05-03T21:11:36.966Z,11.10
2023-05-03T21:14:05.413Z,10.77
2023-05-03T21:16:34.046Z,10.45
2023-05-03T21:19:03.852Z,11.15
2023-05-03T21:21:33.157Z,10.90
2023-05-03T21:24:01.786Z,10.35
2023-05-03T21:26:30.263Z,9.75
2023-05-03T21:29:00.703Z,10.85
2023-05-03T21:31:29.153Z,11.02
2023-05-03T21:33:58.220Z,10.40
2023-05-03T21:36:27.069Z,10.68
2023-05-03T21:38:55.465Z,10.68
2023-05-03T21:41:23.618Z,11.07
2023-05-03T21:43:51.909Z,10.55
2023-05-03T21:46:21.700Z,10.43
2023-05-03T21:48:50.061Z,9.43
2023-05-03T21:51:21.935Z,10.85
2023-05-03T21:53:50.506Z,10.38
2023-05-03T21:56:18.764Z,10.68
2023-05-03T21:58:47.196Z,11.05
2023-05-03T22:01:17.333Z,10.70
2023-05-03T22:03:47.383Z,10.27
2023-05-03T22:06:15.676Z,9.70
2023-05-03T22:08:44.034Z,10.60
2023-05-03T22:11:12.543Z,10.65
2023-05-03T22:13:54.427Z,10.43
2023-05-03T22:16:27.806Z,10.65
2023-05-03T22:18:58.450Z,10.00
2023-05-03T22:21:26.616Z,10.93
2023-05-03T22:23:55.231Z,10.75
2023-05-03T22:26:24.296Z,10.48
2023-05-03T22:28:52.467Z,10.48
2023-05-03T22:31:21.241Z,10.10
2023-05-03T22:33:49.519Z,10.30
2023-05-03T22:36:19.285Z,10.30
2023-05-03T22:38:47.852Z,10.68
2023-05-03T22:41:15.992Z,10.50
2023-05-03T22:43:44.130Z,10.63
2023-05-03T22:46:12.848Z,10.00
2023-05-03T22:48:41.004Z,10.88
2023-05-03T22:51:09.219Z,11.00
2023-05-03T22:53:39.107Z,11.10
2023-05-03T22:56:07.761Z,10.13
2023-05-03T22:58:36.046Z,10.45
2023-05-03T23:01:04.856Z,10.18
2023-05-03T23:03:33.620Z,10.07
2023-05-03T23:06:01.857Z,11.25
2023-05-03T23:08:30.550Z,10.77
2023-05-03T23:11:00.337Z,10.27
2023-05-03T23:13:28.580Z,10.75
2023-05-03T23:15:57.206Z,10.25
2023-05-03T23:18:26.151Z,10.50
2023-05-03T23:20:54.724Z,10.07
2023-05-03T23:23:24.055Z,10.80
2023-05-03T23:25:52.233Z,10.00
2023-05-03T23:28:22.257Z,10.40
2023-05-03T23:30:52.259Z,10.98
2023-05-03T23:33:20.934Z,10.85
2023-05-03T23:35:49.896Z,10.07
2023-05-03T23:38:18.401Z,11.23
2023-05-03T23:40:46.571Z,10.60
2023-05-03T23:43:14.869Z,10.68
2023-05-03T23:45:44.757Z,10.80
2023-05-03T23:48:13.024Z,10.88
2023-05-03T23:50:41.221Z,10.23
2023-05-03T23:53:09.870Z,10.25
2023-05-03T23:55:38.146Z,10.40
2023-05-03T23:58:06.441Z,10.25
